createdAt,value
2018-09-26T03:14:04.837Z,1021.71
2018-09-26T03:15:04.837Z,1021.68
2018-09-26T03:16:04.795Z,1021.68
2018-09-26T03:17:04.799Z,1021.74
2018-09-26T03:18:04.762Z,1021.70
2018-09-26T03:19:04.755Z,1021.71
2018-09-26T03:20:04.746Z,1021.69
2018-09-26T03:21:04.736Z,1021.71
2018-09-26T03:22:04.726Z,1021.66
2018-09-26T03:23:04.733Z,1021.66
2018-09-26T03:24:04.718Z,1021.62
2018-09-26T03:25:04.700Z,1021.60
2018-09-26T03:26:04.694Z,1021.56
2018-09-26T03:27:04.683Z,1021.61
2018-09-26T03:28:04.665Z,1021.58
2018-09-26T03:29:04.693Z,1021.56
2018-09-26T03:30:04.684Z,1021.54
2018-09-26T03:31:04.640Z,1021.53
2018-09-26T03:32:04.642Z,1021.49
2018-09-26T03:33:04.625Z,1021.51
2018-09-26T03:34:04.628Z,1021.48
2018-09-26T03:35:04.634Z,1021.43
2018-09-26T03:36:04.635Z,1021.37
2018-09-26T03:37:04.636Z,1021.37
2018-09-26T03:38:04.590Z,1021.32
2018-09-26T03:39:04.594Z,1021.22
2018-09-26T03:40:04.574Z,1021.25
2018-09-26T03:41:04.570Z,1021.22
2018-09-26T03:42:04.572Z,1021.19
2018-09-26T03:43:04.540Z,1021.12
2018-09-26T03:44:04.543Z,1021.06
2018-09-26T03:45:04.529Z,1021.07
2018-09-26T03:46:04.532Z,1021.02
2018-09-26T03:47:04.515Z,1021.00
2018-09-26T03:48:04.540Z,1020.98
2018-09-26T03:49:04.503Z,1020.96
2018-09-26T03:50:04.505Z,1020.96
2018-09-26T03:51:04.485Z,1020.94
2018-09-26T03:52:04.474Z,1021.00
2018-09-26T03:53:04.477Z,1021.00
2018-09-26T03:54:04.460Z,1021.01
2018-09-26T03:55:04.452Z,1020.97
2018-09-26T03:56:04.448Z,1021.05
2018-09-26T03:57:04.451Z,1021.05
2018-09-26T03:58:04.425Z,1021.06
2018-09-26T03:59:04.424Z,1021.05
2018-09-26T04:00:04.433Z,1021.03
2018-09-26T04:01:04.402Z,1021.01
2018-09-26T04:02:04.414Z,1021.03
2018-09-26T04:03:04.390Z,1020.99
2018-09-26T04:04:04.388Z,1020.97
2018-09-26T04:05:04.450Z,1020.97
2018-09-26T04:06:04.365Z,1020.93
2018-09-26T04:07:04.362Z,1020.91
2018-09-26T04:08:04.361Z,1020.89
2018-09-26T04:09:04.337Z,1020.86
2018-09-26T04:10:04.333Z,1020.84
2018-09-26T04:11:04.336Z,1020.87
2018-09-26T04:12:04.325Z,1020.86
2018-09-26T04:13:04.372Z,1020.89
2018-09-26T04:14:04.306Z,1020.85
2018-09-26T04:15:04.293Z,1020.89
2018-09-26T04:16:04.284Z,1020.88
2018-09-26T04:17:04.284Z,1020.88
2018-09-26T04:18:04.290Z,1020.92
2018-09-26T04:19:04.263Z,1020.92
2018-09-26T04:20:04.249Z,1020.91
2018-09-26T04:21:04.272Z,1020.95
2018-09-26T04:22:04.239Z,1021.00
2018-09-26T04:23:04.233Z,1020.99
2018-09-26T04:24:04.249Z,1021.03
2018-09-26T04:25:04.227Z,1021.00
2018-09-26T04:26:04.259Z,1021.01
2018-09-26T04:27:04.319Z,1021.08
2018-09-26T04:28:04.187Z,1021.10
2018-09-26T04:29:04.241Z,1021.16
2018-09-26T04:30:04.227Z,1021.17
2018-09-26T04:31:13.787Z,1021.19
2018-09-26T04:33:08.848Z,1021.25
2018-09-26T04:35:29.512Z,1021.27
2018-09-26T04:37:42.859Z,1021.31
2018-09-26T04:38:42.868Z,1021.30
2018-09-26T04:39:51.435Z,1021.35
2018-09-26T04:41:36.333Z,1021.36
2018-09-26T04:42:44.797Z,1021.40
2018-09-26T04:44:29.596Z,1021.36
2018-09-26T04:45:29.522Z,1021.39
2018-09-26T04:46:29.572Z,1021.40
2018-09-26T04:47:29.782Z,1021.41
2018-09-26T04:48:29.537Z,1021.39
2018-09-26T04:49:29.475Z,1021.40
2018-09-26T04:50:29.467Z,1021.39
2018-09-26T04:51:29.464Z,1021.39
2018-09-26T04:52:29.456Z,1021.40
2018-09-26T04:53:29.463Z,1021.41
2018-09-26T04:54:29.471Z,1021.42
2018-09-26T04:55:29.435Z,1021.38
2018-09-26T04:56:29.446Z,1021.39
2018-09-26T04:57:29.438Z,1021.34
2018-09-26T04:58:29.412Z,1021.32
2018-09-26T04:59:29.405Z,1021.34
2018-09-26T05:00:29.394Z,1021.30
2018-09-26T05:01:29.409Z,1021.30
2018-09-26T05:02:29.374Z,1021.31
2018-09-26T05:03:29.392Z,1021.30
2018-09-26T05:04:29.393Z,1021.33
2018-09-26T05:05:29.352Z,1021.31
2018-09-26T05:06:29.386Z,1021.32
2018-09-26T05:07:29.388Z,1021.32
2018-09-26T05:08:29.328Z,1021.30
2018-09-26T05:09:29.418Z,1021.31
2018-09-26T05:10:29.318Z,1021.32
2018-09-26T05:11:29.361Z,1021.27
2018-09-26T05:12:29.342Z,1021.26
2018-09-26T05:13:29.296Z,1021.28
2018-09-26T05:14:29.293Z,1021.30
2018-09-26T05:15:29.297Z,1021.29
2018-09-26T05:16:29.311Z,1021.26
2018-09-26T05:17:29.282Z,1021.28
2018-09-26T05:18:29.271Z,1021.26
2018-09-26T05:19:29.249Z,1021.22
2018-09-26T05:20:29.234Z,1021.23
2018-09-26T05:21:29.250Z,1021.28
2018-09-26T05:22:29.222Z,1021.28
2018-09-26T05:23:29.216Z,1021.30
2018-09-26T05:24:29.210Z,1021.36
2018-09-26T05:25:29.245Z,1021.37
2018-09-26T05:26:29.225Z,1021.35
2018-09-26T05:27:29.184Z,1021.36
2018-09-26T05:28:29.209Z,1021.40
2018-09-26T05:29:29.173Z,1021.38
2018-09-26T05:30:29.215Z,1021.38
2018-09-26T05:31:37.862Z,1021.40
2018-09-26T05:33:23.640Z,1021.34
2018-09-26T05:34:23.570Z,1021.32
2018-09-26T05:35:23.548Z,1021.36
2018-09-26T05:36:23.595Z,1021.32
2018-09-26T05:37:23.562Z,1021.31
2018-09-26T05:39:44.575Z,1021.31
2018-09-26T05:40:44.563Z,1021.31
2018-09-26T05:41:44.604Z,1021.32
2018-09-26T05:42:44.601Z,1021.34
2018-09-26T05:43:44.534Z,1021.40
2018-09-26T05:44:44.492Z,1021.38
2018-09-26T05:45:44.518Z,1021.41
2018-09-26T05:46:44.526Z,1021.44
2018-09-26T05:47:44.477Z,1021.45
2018-09-26T05:48:44.479Z,1021.52
2018-09-26T05:49:44.461Z,1021.47
2018-09-26T05:52:06.501Z,1021.57
2018-09-26T05:53:06.469Z,1021.58
2018-09-26T05:54:06.518Z,1021.61
2018-09-26T05:55:06.459Z,1021.65
2018-09-26T05:56:06.541Z,1021.62
2018-09-26T05:57:06.455Z,1021.61
2018-09-26T05:58:06.429Z,1021.61
2018-09-26T05:59:06.421Z,1021.61
2018-09-26T06:00:06.417Z,1021.60
2018-09-26T06:01:06.429Z,1021.61
2018-09-26T06:02:06.392Z,1021.63
2018-09-26T06:03:06.412Z,1021.65
2018-09-26T06:04:06.387Z,1021.71
2018-09-26T06:05:06.373Z,1021.73
2018-09-26T06:06:06.368Z,1021.73
2018-09-26T06:07:06.372Z,1021.77
2018-09-26T06:08:06.371Z,1021.80
2018-09-26T06:09:06.372Z,1021.81
2018-09-26T06:10:06.425Z,1021.86
2018-09-26T06:11:06.351Z,1021.89
2018-09-26T06:12:06.342Z,1021.89
2018-09-26T06:13:06.370Z,1021.83
2018-09-26T06:14:06.316Z,1021.79
2018-09-26T06:15:06.350Z,1021.72
2018-09-26T06:16:06.325Z,1021.74
2018-09-26T06:17:06.330Z,1021.71
2018-09-26T06:18:06.284Z,1021.71
2018-09-26T06:19:06.350Z,1021.69
2018-09-26T06:20:06.315Z,1021.73
2018-09-26T06:21:06.261Z,1021.69
2018-09-26T06:22:06.264Z,1021.68
2018-09-26T06:23:06.281Z,1021.72
2018-09-26T06:24:06.276Z,1021.68
2018-09-26T06:25:06.274Z,1021.64
2018-09-26T06:26:06.263Z,1021.71
2018-09-26T06:27:06.216Z,1021.72
2018-09-26T06:28:06.209Z,1021.70
2018-09-26T06:29:06.223Z,1021.66
2018-09-26T06:30:06.223Z,1021.72
2018-09-26T06:31:06.234Z,1021.67
2018-09-26T06:32:06.179Z,1021.66
2018-09-26T06:33:15.605Z,1021.65
2018-09-26T06:34:59.644Z,1021.62
2018-09-26T06:35:59.589Z,1021.63
2018-09-26T06:36:59.551Z,1021.67
2018-09-26T06:37:59.558Z,1021.65
2018-09-26T06:38:59.543Z,1021.61
2018-09-26T06:39:59.528Z,1021.62
2018-09-26T06:40:59.531Z,1021.65
2018-09-26T06:41:59.523Z,1021.67
2018-09-26T06:42:59.510Z,1021.63
2018-09-26T06:43:59.532Z,1021.70
2018-09-26T06:44:59.504Z,1021.72
2018-09-26T06:45:59.494Z,1021.75
2018-09-26T06:46:59.489Z,1021.73
2018-09-26T06:47:59.493Z,1021.70
2018-09-26T06:48:59.492Z,1021.73
2018-09-26T06:49:59.488Z,1021.76
2018-09-26T06:50:59.486Z,1021.74
2018-09-26T06:51:59.464Z,1021.72
2018-09-26T06:52:59.440Z,1021.77
2018-09-26T06:53:59.470Z,1021.75
2018-09-26T06:54:59.427Z,1021.79
2018-09-26T06:55:59.432Z,1021.82
2018-09-26T06:56:59.431Z,1021.81
2018-09-26T06:57:59.407Z,1021.91
2018-09-26T06:58:59.398Z,1021.96
2018-09-26T06:59:59.403Z,1021.97
2018-09-26T07:00:59.388Z,1022.06
2018-09-26T07:01:59.381Z,1022.12
2018-09-26T07:02:59.376Z,1022.18
2018-09-26T07:03:59.392Z,1022.23
2018-09-26T07:04:59.387Z,1022.28
2018-09-26T07:05:59.355Z,1022.30
2018-09-26T07:06:59.404Z,1022.36
2018-09-26T07:07:59.346Z,1022.35
2018-09-26T07:08:59.408Z,1022.35
2018-09-26T07:10:08.010Z,1022.39
2018-09-26T07:11:52.768Z,1022.33
2018-09-26T07:13:01.476Z,1022.32
2018-09-26T07:14:46.153Z,1022.35
2018-09-26T07:15:46.103Z,1022.31
2018-09-26T07:18:07.173Z,1022.30
2018-09-26T07:19:15.800Z,1022.28
2018-09-26T07:21:00.579Z,1022.28
2018-09-26T07:22:00.519Z,1022.28
2018-09-26T07:23:00.523Z,1022.29
2018-09-26T07:24:00.585Z,1022.25
2018-09-26T07:25:00.500Z,1022.24
2018-09-26T07:26:00.492Z,1022.24
2018-09-26T07:27:00.482Z,1022.25
2018-09-26T07:28:00.496Z,1022.23
2018-09-26T07:29:00.618Z,1022.24
2018-09-26T07:30:00.515Z,1022.24
2018-09-26T07:31:00.492Z,1022.30
2018-09-26T07:32:00.454Z,1022.38
2018-09-26T07:33:00.440Z,1022.41
2018-09-26T07:34:00.471Z,1022.36
2018-09-26T07:35:00.469Z,1022.37
2018-09-26T07:36:00.440Z,1022.37
2018-09-26T07:37:00.437Z,1022.32
2018-09-26T07:38:00.469Z,1022.35
2018-09-26T07:39:00.442Z,1022.35
2018-09-26T07:40:00.460Z,1022.40
2018-09-26T07:41:00.446Z,1022.44
2018-09-26T07:42:00.450Z,1022.50
2018-09-26T07:43:00.390Z,1022.51
2018-09-26T07:44:00.410Z,1022.50
2018-09-26T07:45:00.418Z,1022.54
2018-09-26T07:46:00.407Z,1022.60
2018-09-26T07:47:00.423Z,1022.62
2018-09-26T07:48:00.402Z,1022.65
2018-09-26T07:49:00.409Z,1022.65
2018-09-26T07:50:00.419Z,1022.64
2018-09-26T07:51:00.420Z,1022.62
2018-09-26T07:52:00.362Z,1022.59
2018-09-26T07:53:00.402Z,1022.63
2018-09-26T07:54:00.385Z,1022.62
2018-09-26T07:55:00.367Z,1022.57
2018-09-26T07:56:00.376Z,1022.58
2018-09-26T07:57:00.358Z,1022.58
2018-09-26T07:58:00.347Z,1022.56
2018-09-26T07:59:00.347Z,1022.57
2018-09-26T08:00:00.377Z,1022.62
2018-09-26T08:01:00.311Z,1022.63
2018-09-26T08:02:00.331Z,1022.63
2018-09-26T08:03:00.312Z,1022.62
2018-09-26T08:04:00.287Z,1022.71
2018-09-26T08:05:00.292Z,1022.69
2018-09-26T08:06:00.363Z,1022.69
2018-09-26T08:07:00.270Z,1022.72
2018-09-26T08:08:00.275Z,1022.74
2018-09-26T08:09:00.273Z,1022.76
2018-09-26T08:10:00.282Z,1022.75
2018-09-26T08:11:00.289Z,1022.72
2018-09-26T08:12:00.259Z,1022.73
2018-09-26T08:13:00.286Z,1022.67
2018-09-26T08:14:00.250Z,1022.62
2018-09-26T08:15:00.253Z,1022.62
2018-09-26T08:16:00.239Z,1022.64
2018-09-26T08:17:00.244Z,1022.67
2018-09-26T08:18:00.273Z,1022.60
2018-09-26T08:19:00.205Z,1022.67
2018-09-26T08:20:00.235Z,1022.65
2018-09-26T08:21:00.211Z,1022.64
2018-09-26T08:22:00.211Z,1022.62
2018-09-26T08:24:22.371Z,1022.59
2018-09-26T08:25:22.235Z,1022.60
2018-09-26T08:26:30.849Z,1022.61
2018-09-26T08:28:26.679Z,1022.70
2018-09-26T08:29:16.648Z,1022.66
2018-09-26T08:30:16.767Z,1022.65
2018-09-26T08:32:37.664Z,1022.70
2018-09-26T08:33:37.652Z,1022.68
2018-09-26T08:34:37.614Z,1022.68
2018-09-26T08:35:37.622Z,1022.67
2018-09-26T08:36:37.612Z,1022.62
2018-09-26T08:37:37.662Z,1022.65
2018-09-26T08:38:37.623Z,1022.65
2018-09-26T08:39:37.619Z,1022.62
2018-09-26T08:40:37.590Z,1022.63
2018-09-26T08:41:37.601Z,1022.60
2018-09-26T08:42:37.567Z,1022.57
2018-09-26T08:43:37.562Z,1022.56
2018-09-26T08:44:37.579Z,1022.54
2018-09-26T08:45:37.556Z,1022.53
2018-09-26T08:46:37.575Z,1022.53
2018-09-26T08:47:37.572Z,1022.55
2018-09-26T08:48:37.592Z,1022.59
2018-09-26T08:49:37.541Z,1022.59
2018-09-26T08:50:37.585Z,1022.61
2018-09-26T08:51:37.572Z,1022.64
2018-09-26T08:52:37.600Z,1022.63
2018-09-26T08:53:37.540Z,1022.58
2018-09-26T08:54:37.557Z,1022.62
2018-09-26T08:55:37.543Z,1022.59
2018-09-26T08:56:37.518Z,1022.61
2018-09-26T08:57:37.533Z,1022.63
2018-09-26T08:58:37.540Z,1022.66
2018-09-26T08:59:37.493Z,1022.70
2018-09-26T09:00:37.529Z,1022.71
2018-09-26T09:01:37.480Z,1022.67
2018-09-26T09:02:37.472Z,1022.66
2018-09-26T09:03:37.475Z,1022.64
2018-09-26T09:04:37.478Z,1022.62
2018-09-26T09:05:37.466Z,1022.51
2018-09-26T09:06:37.490Z,1022.49
2018-09-26T09:07:37.452Z,1022.47
2018-09-26T09:08:37.455Z,1022.47
2018-09-26T09:09:37.443Z,1022.50
2018-09-26T09:10:37.450Z,1022.53
2018-09-26T09:11:37.488Z,1022.55
2018-09-26T09:12:37.437Z,1022.56
2018-09-26T09:13:37.443Z,1022.53
2018-09-26T09:14:37.552Z,1022.56
2018-09-26T09:15:37.438Z,1022.58
2018-09-26T09:16:37.450Z,1022.59
2018-09-26T09:17:37.446Z,1022.62
2018-09-26T09:18:37.415Z,1022.69
2018-09-26T09:19:37.400Z,1022.64
2018-09-26T09:20:37.428Z,1022.64
2018-09-26T09:21:37.446Z,1022.68
2018-09-26T09:22:37.403Z,1022.69
2018-09-26T09:23:37.396Z,1022.68
2018-09-26T09:24:37.389Z,1022.67
2018-09-26T09:25:37.390Z,1022.69
2018-09-26T09:26:37.379Z,1022.71
2018-09-26T09:27:37.396Z,1022.67
2018-09-26T09:28:37.362Z,1022.69
2018-09-26T09:29:37.358Z,1022.67
2018-09-26T09:30:37.372Z,1022.65
2018-09-26T09:31:37.352Z,1022.63
2018-09-26T09:32:37.354Z,1022.61
2018-09-26T09:33:37.369Z,1022.58
2018-09-26T09:34:37.349Z,1022.58
2018-09-26T09:35:37.335Z,1022.62
2018-09-26T09:36:37.393Z,1022.57
2018-09-26T09:37:37.327Z,1022.58
2018-09-26T09:38:37.335Z,1022.57
2018-09-26T09:39:37.326Z,1022.58
2018-09-26T09:40:37.344Z,1022.56
2018-09-26T09:41:37.316Z,1022.58
2018-09-26T09:42:37.322Z,1022.58
2018-09-26T09:43:37.327Z,1022.54
2018-09-26T09:44:37.346Z,1022.59
2018-09-26T09:45:37.312Z,1022.55
2018-09-26T09:46:44.970Z,1022.56
2018-09-26T09:48:38.424Z,1022.56
2018-09-26T09:50:51.814Z,1022.56
2018-09-26T09:51:51.719Z,1022.55
